Pittsburgh, Pennsylvania
Traffic Map
Current Weather Conditions
Pittsburgh, Pennsylvania
Clear
Clear
62°
Feels Like: 62°
Wind Chill: 62° Ceiling: Unl
Heat Index: 62° Visibility: 7mi
Dew Point: 53° Wind: 0mph
Humidity: 72% Direction: ° ()
Pressure: 30.09in Gusts: 0mph
Raw Report DataKAGC 050753Z AUTO 00000KT 7SM CLR 17/12 A3009 RMK AO2 SLP186 T01670117 TSNO
Traffic Incident Summary
Active as of:
Severity:
Category:
InformationThere was an issue retrieving the traffic information for this location. Please try a different location or try again shortly.
Advertisements
Track Severe Weather on mobile